Hovedside
METAR-TAF:

METAR-TAF

Lufthavner :

Hammerfest lufthavn

Hammerfest, Norge

breddegrad: 70-40N, lengdegrad: 023-40E, høyde over havet: 8 m

Gjeldene værobservasjon

Denne rapporten ble laget for 36 minutter siden, klokken 10:20 UTC
Vind 7 kt fra Sørvest
Temperatur 10°C
Luftfuktighet 82%
Trykk 983 hPa
Sikt 10 km eller mer
Få skyer i en høyde av 2000 ft
Brutte skyer i en høyde av 7200 ft

METAR: ENHF 211020Z 22007KT 9999 FEW020 BKN072 10/07 Q0983 RMK WIND 1254FT 25012KT

Tid: 12:56 (10:56 UTC)

Varsel

Denne rapporten ble laget for 2 timer og 56 minutter siden, klokken 08:00 UTC
Varsel gyldig fra 21. klokken 09 UTC til 21. klokken 18 UTC
Vind 9 kt fra Sør-sørvest
Sikt 10 km eller mer
Få skyer i en høyde av 2000 ft, Tårnskyer (cumulus).
Brutte skyer i en høyde av 4000 ft
lette regnbyger
Midlertidig
fra 21. klokken 09 UTC til 21. klokken 15 UTC
Få skyer i en høyde av 2000 ft, Bygeskyer.

TAF: ENHF 210800Z 2109/2118 21009KT 9999 -SHRA FEW020TCU BKN040 TEMPO 2109/2115 FEW020CB

Værobservasjoner og værvarsel for over 4000 flyplasser (METAR- og TAF-rapporter).

Tilgjengelige stasjoner er representert av de røde og gule prikkene på kartet.

Hold musepekeren over prikken for å se navnet på stasjonen.

Klikk så for å se værobservasjoner og -varsler.

For å forandre kartet kan du klikke på den grønne knappen med svart kryss for å zoome inn, på den grønne knappen med strek for å zoome ut, eller på de grønne pilene for å se tilstøtende kart.


METAR-TAF: